Time;durP1;ratioP1;P1;durP2;ratioP2;P2;SDS_P1;SDS_P2;PMS_P1;PMS_P2;Temp;Humidity;BMP_temperature;BMP_pressure;BME280_temperature;BME280_humidity;BME280_pressure;Samples;Min_cycle;Max_cycle;Signal;HPM_P1;HPM_P2
2022/12/20 00:03:43;;;;;;;358.20;148.37;;;;;;;-5.75;98.05;100044.63;4206227;83;21561;-86
2022/12/20 00:09:44;;;;;;;364.40;153.20;;;;;;;-5.56;98.93;100025.94;4206784;83;21057;-86
2022/12/20 00:15:45;;;;;;;389.67;159.20;;;;;;;-5.32;99.40;100031.35;4207594;83;21044;-87
2022/12/20 00:21:47;;;;;;;361.67;160.50;;;;;;;-5.29;98.88;100030.86;4243275;82;21044;-87
2022/12/20 00:27:50;;;;;;;370.73;162.20;;;;;;;-5.29;98.43;100039.38;4209894;83;20992;-86
2022/12/20 00:33:54;;;;;;;387.93;162.50;;;;;;;-5.24;99.02;100042.94;4159178;83;21536;-86
2022/12/20 00:39:56;;;;;;;372.13;152.67;;;;;;;-5.16;99.18;100034.50;4247482;82;21496;-87
2022/12/20 00:45:57;;;;;;;403.50;176.53;;;;;;;-5.06;99.62;100048.52;4252673;82;21035;-87
2022/12/20 00:51:59;;;;;;;442.40;185.13;;;;;;;-5.11;99.21;100050.59;4243514;82;21036;-86
2022/12/20 00:58:00;;;;;;;431.80;187.73;;;;;;;-5.10;99.48;100046.86;4147518;84;21041;-87
2022/12/20 01:04:02;;;;;;;454.17;194.70;;;;;;;-5.10;99.29;100038.03;4240252;81;21537;-87
2022/12/20 01:10:05;;;;;;;460.80;196.33;;;;;;;-5.04;99.59;100031.70;4242282;82;21560;-88
2022/12/20 01:16:10;;;;;;;441.73;193.00;;;;;;;-4.90;100.00;100028.92;4251549;82;20997;-87
2022/12/20 01:22:12;;;;;;;431.50;192.62;;;;;;;-4.93;100.00;100020.08;4196685;83;21535;-87
2022/12/20 01:28:13;;;;;;;456.17;195.77;;;;;;;-4.89;100.00;100013.20;4197459;83;21080;-86
2022/12/20 01:34:14;;;;;;;452.07;197.73;;;;;;;-4.76;100.00;100011.45;4232032;81;21020;-87
2022/12/20 01:40:16;;;;;;;457.97;198.23;;;;;;;-4.57;100.00;100003.93;4233074;81;21499;-87
2022/12/20 01:46:21;;;;;;;459.13;199.93;;;;;;;-4.56;100.00;99995.66;4226496;81;21052;-86
2022/12/20 01:52:38;;;;;;;458.43;203.93;;;;;;;-4.65;100.00;99989.13;4153161;84;21101;-87
2022/12/20 01:58:41;;;;;;;468.13;203.37;;;;;;;-4.59;100.00;99976.64;4222216;83;21053;-87
2022/12/20 02:04:42;;;;;;;457.57;196.17;;;;;;;-4.52;100.00;99974.04;4219335;81;21044;-87
2022/12/20 02:11:09;;;;;;;445.87;195.57;;;;;;;-4.36;100.00;99972.30;4211823;83;21029;-88
2022/12/20 02:17:25;;;;;;;434.50;188.60;;;;;;;-4.42;100.00;100005.41;4225883;83;21029;-87
2022/12/20 02:23:38;;;;;;;412.72;182.55;;;;;;;-4.38;100.00;99988.60;4222444;81;21092;-86
2022/12/20 02:30:14;;;;;;;392.57;178.83;;;;;;;-4.32;100.00;99974.77;4224433;81;21036;-87
2022/12/20 02:36:18;;;;;;;394.60;175.20;;;;;;;-4.24;100.00;99962.23;4220185;82;20988;-87
2022/12/20 02:42:24;;;;;;;404.90;174.10;;;;;;;-4.18;100.00;99956.69;4195156;83;21109;-87
2022/12/20 02:48:30;;;;;;;390.20;174.90;;;;;;;-4.14;100.00;99938.27;4224046;83;21600;-87
2022/12/20 02:54:32;;;;;;;293.30;132.78;;;;;;;-4.06;100.00;99949.83;4164674;84;21605;-87
2022/12/20 03:00:39;;;;;;;379.30;166.63;;;;;;;-4.06;100.00;99943.14;4213522;83;21076;-88
2022/12/20 03:07:11;;;;;;;369.07;167.87;;;;;;;-4.02;100.00;99941.55;4207321;83;21510;-87
2022/12/20 03:13:13;;;;;;;332.97;153.83;;;;;;;-3.93;100.00;99952.86;4231816;81;21017;-86
2022/12/20 03:19:16;;;;;;;329.77;146.27;;;;;;;-3.87;100.00;99965.75;4207425;83;20988;-86
2022/12/20 03:25:18;;;;;;;315.90;138.93;;;;;;;-3.82;100.00;99946.50;4206732;83;21041;-87
2022/12/20 03:31:20;;;;;;;344.87;153.00;;;;;;;-3.79;100.00;99936.62;4206958;83;22142;-87
2022/12/20 03:37:23;;;;;;;341.30;152.20;;;;;;;-3.84;100.00;99936.62;4248908;82;20984;-88
2022/12/20 03:43:25;;;;;;;327.77;143.53;;;;;;;-3.79;100.00;99945.98;4219688;81;21052;-87
2022/12/20 03:49:26;;;;;;;316.23;138.70;;;;;;;-3.77;100.00;99947.87;4167033;84;22292;-87
2022/12/20 03:55:27;;;;;;;315.47;137.30;;;;;;;-3.68;100.00;99946.88;4203596;83;21021;-88
2022/12/20 04:01:29;;;;;;;329.33;147.23;;;;;;;-3.56;100.00;99918.84;4160886;83;21130;-86
2022/12/20 04:07:31;;;;;;;311.20;141.07;;;;;;;-3.64;100.00;99927.88;4203863;83;21490;-87
2022/12/20 04:13:37;;;;;;;319.97;146.53;;;;;;;-3.68;100.00;99914.77;4161935;83;21058;-87
2022/12/20 04:19:37;;;;;;;302.43;133.87;;;;;;;-3.75;100.00;99925.70;4132556;84;21568;-87
2022/12/20 04:25:38;;;;;;;336.77;154.17;;;;;;;-3.80;100.00;99919.49;4163365;84;21890;-86
2022/12/20 04:31:41;;;;;;;363.43;158.67;;;;;;;-3.79;100.00;99911.77;4160925;84;21047;-88
2022/12/20 04:37:42;;;;;;;333.07;149.97;;;;;;;-3.92;100.00;99918.89;4182988;84;21070;-87
2022/12/20 04:43:44;;;;;;;345.73;154.47;;;;;;;-3.91;100.00;99919.16;4181552;82;21972;-87
2022/12/20 04:49:45;;;;;;;363.80;160.40;;;;;;;-4.04;100.00;99911.61;4183545;84;20959;-87
2022/12/20 04:55:47;;;;;;;336.10;147.63;;;;;;;-4.12;100.00;99904.84;4172012;84;22016;-87
2022/12/20 05:01:49;;;;;;;323.67;144.30;;;;;;;-4.11;100.00;99911.83;4168085;84;22048;-86
2022/12/20 05:07:53;;;;;;;372.57;160.63;;;;;;;-4.21;100.00;99898.93;4168032;84;21107;-86
2022/12/20 05:13:56;;;;;;;378.63;172.20;;;;;;;-4.20;100.00;99911.22;4161931;84;21051;-86
2022/12/20 05:19:58;;;;;;;412.87;187.40;;;;;;;-4.18;100.00;99915.23;4165875;84;21039;-87
2022/12/20 05:26:18;;;;;;;448.83;203.03;;;;;;;-4.30;100.00;99903.12;4182546;84;21617;-86
2022/12/20 05:32:22;;;;;;;433.23;198.47;;;;;;;-4.16;100.00;99909.11;4159683;82;21563;-86
2022/12/20 05:38:25;;;;;;;436.03;193.20;;;;;;;-4.17;100.00;99915.53;4218366;81;21065;-87
2022/12/20 05:44:27;;;;;;;417.43;189.27;;;;;;;-4.08;100.00;99905.97;4204582;83;21084;-88
2022/12/20 05:50:34;;;;;;;438.50;197.43;;;;;;;-4.08;100.00;99906.48;4203553;83;21021;-87
2022/12/20 05:56:53;;;;;;;399.10;182.57;;;;;;;-4.00;100.00;99907.34;4204010;83;21059;-87
2022/12/20 06:02:57;;;;;;;402.03;177.53;;;;;;;-4.14;100.00;99919.55;4205865;83;21068;-87
2022/12/20 06:09:00;;;;;;;404.87;187.00;;;;;;;-4.22;100.00;99921.36;4206284;83;21077;-87
2022/12/20 06:15:15;;;;;;;444.25;202.30;;;;;;;-4.24;100.00;99902.91;4202076;83;21025;-87
2022/12/20 06:21:16;;;;;;;428.50;192.93;;;;;;;-4.21;100.00;99899.72;4206451;83;20978;-87
2022/12/20 06:27:20;;;;;;;397.80;176.40;;;;;;;-4.16;100.00;99897.08;4229449;81;21585;-86
2022/12/20 06:33:24;;;;;;;408.97;180.67;;;;;;;-4.22;100.00;99894.63;4223998;83;21024;-87
2022/12/20 06:39:27;;;;;;;429.03;193.33;;;;;;;-4.17;100.00;99893.33;4223853;83;21111;-86
2022/12/20 06:45:39;;;;;;;419.47;190.47;;;;;;;-4.09;100.00;99899.53;4220675;83;21072;-87
2022/12/20 06:51:42;;;;;;;426.27;187.93;;;;;;;-4.11;100.00;99893.63;4222571;83;21076;-86
2022/12/20 06:57:43;;;;;;;399.43;175.03;;;;;;;-4.11;100.00;99886.95;4223865;83;21964;-87
2022/12/20 07:03:49;;;;;;;427.02;189.00;;;;;;;-4.02;100.00;99877.37;4222103;83;22060;-87
2022/12/20 07:09:50;;;;;;;424.40;189.27;;;;;;;-3.93;100.00;99888.66;4228501;83;21627;-88
2022/12/20 07:15:57;;;;;;;429.33;192.37;;;;;;;-3.90;100.00;99877.44;4221829;83;21086;-87
2022/12/20 07:21:58;;;;;;;425.87;193.50;;;;;;;-3.81;100.00;99879.10;4225457;83;21009;-87
2022/12/20 07:28:01;;;;;;;398.13;179.37;;;;;;;-3.93;100.00;99882.52;4223302;83;21076;-87
2022/12/20 07:34:02;;;;;;;365.37;165.10;;;;;;;-3.94;100.00;99883.05;4212690;83;21427;-87
2022/12/20 07:40:06;;;;;;;370.27;165.00;;;;;;;-4.12;100.00;99877.33;4164752;84;22136;-87
2022/12/20 07:46:10;;;;;;;287.03;131.17;;;;;;;-3.82;100.00;99880.96;4214490;83;21076;-87
2022/12/20 07:52:13;;;;;;;348.13;158.57;;;;;;;-3.52;100.00;99880.29;4199915;83;20980;-87
2022/12/20 07:58:17;;;;;;;286.07;133.67;;;;;;;-3.54;100.00;99879.77;4222144;83;20983;-88
2022/12/20 08:04:26;;;;;;;353.70;158.80;;;;;;;-3.28;100.00;99883.61;4200078;83;21049;-87
2022/12/20 08:10:29;;;;;;;305.47;136.73;;;;;;;-3.18;100.00;99894.07;4224347;83;20945;-88
2022/12/20 08:16:30;;;;;;;231.17;108.20;;;;;;;-2.94;100.00;99880.48;4205995;83;21501;-87
2022/12/20 08:22:32;;;;;;;266.23;122.57;;;;;;;-2.71;100.00;99874.05;4098421;84;20995;-88
2022/12/20 08:28:35;;;;;;;253.60;119.10;;;;;;;-2.42;100.00;99871.64;4222501;83;20973;-88
2022/12/20 08:34:38;;;;;;;172.50;80.57;;;;;;;-2.18;100.00;99860.10;4218857;82;21012;-88
2022/12/20 08:40:42;;;;;;;200.83;93.90;;;;;;;-1.93;100.00;99864.07;4220908;83;20981;-88
2022/12/20 08:46:43;;;;;;;198.20;91.03;;;;;;;-1.87;100.00;99870.22;4196225;82;75765;-88
2022/12/20 08:52:47;;;;;;;198.97;88.70;;;;;;;-1.69;100.00;99865.58;4144226;84;21019;-87
2022/12/20 08:58:48;;;;;;;280.50;133.53;;;;;;;-1.38;100.00;99861.72;4150380;84;21942;-88
2022/12/20 09:04:50;;;;;;;284.43;134.78;;;;;;;-1.17;100.00;99862.39;4143870;84;20994;-90
2022/12/20 09:10:53;;;;;;;289.93;138.50;;;;;;;-0.89;100.00;99863.83;4139957;84;21052;-89
2022/12/20 09:16:56;;;;;;;204.50;94.55;;;;;;;-0.66;100.00;99842.17;4142443;84;20999;-88
2022/12/20 09:23:00;;;;;;;144.53;68.50;;;;;;;-0.66;100.00;99842.17;4140179;84;21010;-90
2022/12/20 09:29:02;;;;;;;150.12;72.15;;;;;;;-0.42;100.00;99837.64;4162621;83;20960;-91
2022/12/20 09:35:05;;;;;;;122.13;57.48;;;;;;;-0.20;100.00;99835.28;4199479;82;21989;-89
2022/12/20 09:41:20;;;;;;;123.95;56.02;;;;;;;0.16;100.00;99839.78;4216631;81;20985;-91
2022/12/20 09:47:24;;;;;;;108.15;53.92;;;;;;;0.16;100.00;99839.78;4232223;82;21004;-90
2022/12/20 09:54:22;;;;;;;110.50;52.40;;;;;;;0.40;100.00;99834.63;4244817;82;21009;-92
2022/12/20 10:00:25;;;;;;;116.60;52.62;;;;;;;0.70;100.00;99826.16;4255286;82;21970;-91
2022/12/20 10:06:47;;;;;;;112.20;52.33;;;;;;;0.67;100.00;99833.48;4200894;83;21007;-91
2022/12/20 10:13:03;;;;;;;103.22;47.05;;;;;;;0.63;100.00;99823.55;4209702;83;21062;-91
2022/12/20 10:19:36;;;;;;;101.70;47.30;;;;;;;0.82;100.00;99822.48;4205354;82;21538;-92
2022/12/20 10:25:41;;;;;;;88.22;42.40;;;;;;;1.13;100.00;99806.11;4217498;83;21051;-90
2022/12/20 10:31:42;;;;;;;93.07;42.05;;;;;;;1.31;100.00;99799.09;4204063;83;21048;-89
2022/12/20 10:38:11;;;;;;;86.25;41.50;;;;;;;1.17;100.00;99786.10;4221902;83;21627;-88
2022/12/20 10:44:26;;;;;;;83.00;40.50;;;;;;;0.93;100.00;99751.16;4198604;83;21593;-87
2022/12/20 10:50:28;;;;;;;93.65;40.95;;;;;;;0.86;100.00;99735.11;4213594;83;21112;-89
2022/12/20 10:56:36;;;;;;;84.67;37.10;;;;;;;1.13;100.00;99716.30;4210856;83;21021;-86
2022/12/20 11:02:40;;;;;;;86.30;39.85;;;;;;;1.24;100.00;99708.30;4183794;83;21052;-86
2022/12/20 11:08:41;;;;;;;89.15;40.28;;;;;;;1.49;100.00;99712.70;4190104;83;21071;-86
2022/12/20 11:14:46;;;;;;;86.15;37.98;;;;;;;1.73;100.00;99709.00;4200816;83;21055;-86
2022/12/20 11:21:15;;;;;;;82.22;37.48;;;;;;;1.68;100.00;99711.25;4217839;83;22080;-86
2022/12/20 11:27:44;;;;;;;85.35;40.38;;;;;;;1.72;100.00;99710.92;4191894;83;21065;-85
2022/12/20 11:34:03;;;;;;;91.78;39.48;;;;;;;1.67;100.00;99708.31;4187691;83;21113;-85
2022/12/20 11:40:32;;;;;;;91.47;38.65;;;;;;;1.46;100.00;99707.90;4117974;84;21949;-86
2022/12/20 11:47:22;;;;;;;84.32;39.42;;;;;;;1.22;100.00;99694.33;4147700;84;21957;-86
2022/12/20 11:54:02;;;;;;;92.50;41.83;;;;;;;1.16;100.00;99670.67;4150198;84;21091;-86
2022/12/20 12:00:05;;;;;;;106.95;43.75;;;;;;;1.21;100.00;99683.27;4145441;84;21031;-85
2022/12/20 12:06:26;;;;;;;84.35;37.30;;;;;;;1.24;100.00;99688.06;4145208;84;21622;-86
2022/12/20 12:12:48;;;;;;;97.92;41.25;;;;;;;1.28;100.00;99671.02;4147756;83;21415;-87
2022/12/20 12:18:50;;;;;;;93.07;40.23;;;;;;;1.44;100.00;99680.97;4153740;84;21055;-87
2022/12/20 12:24:56;;;;;;;90.72;40.98;;;;;;;1.40;100.00;99661.88;4131738;84;21588;-87
2022/12/20 12:31:01;;;;;;;;;;;;;;;1.36;100.00;99654.12;4150466;83;21385;-87
2022/12/20 12:37:33;;;;;;;94.15;42.55;;;;;;;1.28;100.00;99645.39;4154703;84;20536;-85
2022/12/20 12:43:53;;;;;;;94.85;42.35;;;;;;;1.24;100.00;99632.78;4156069;84;21548;-87
2022/12/20 12:49:56;;;;;;;82.95;39.15;;;;;;;1.32;100.00;99617.25;4157431;84;21000;-87
2022/12/20 12:55:58;;;;;;;90.07;43.02;;;;;;;1.32;100.00;99609.97;4156204;84;22015;-86
2022/12/20 13:02:19;;;;;;;93.40;42.17;;;;;;;1.24;100.00;99624.69;4155024;84;21713;-87
2022/12/20 13:08:25;;;;;;;96.85;41.75;;;;;;;1.26;100.00;99636.80;4152470;83;21067;-86
2022/12/20 13:14:32;;;;;;;90.97;41.23;;;;;;;1.32;100.00;99646.38;4134952;84;22051;-86
2022/12/20 13:20:35;;;;;;;96.57;40.52;;;;;;;1.30;100.00;99638.35;4177954;84;21009;-86
2022/12/20 13:26:52;;;;;;;95.12;41.02;;;;;;;1.29;100.00;99633.50;4138593;84;21671;-86
2022/12/20 13:33:00;;;;;;;92.00;43.78;;;;;;;1.23;100.00;99633.89;4139396;84;22011;-86
2022/12/20 13:39:08;;;;;;;112.88;48.10;;;;;;;0.99;100.00;99616.52;4122199;85;21571;-87
2022/12/20 13:45:13;;;;;;;96.02;42.38;;;;;;;0.93;100.00;99610.17;4153508;84;21053;-87
2022/12/20 13:51:25;;;;;;;111.63;47.87;;;;;;;0.85;100.00;99605.45;4198076;82;21018;-87
2022/12/20 13:57:42;;;;;;;98.82;45.28;;;;;;;0.84;100.00;99622.73;4173947;84;21042;-87
2022/12/20 14:03:46;;;;;;;106.80;48.38;;;;;;;0.82;100.00;99628.42;4091673;86;21093;-86
2022/12/20 14:09:56;;;;;;;106.27;49.08;;;;;;;0.81;100.00;99636.80;4175705;84;21997;-87
2022/12/20 14:16:15;;;;;;;113.08;51.18;;;;;;;0.76;100.00;99635.53;4162268;84;21927;-88
2022/12/20 14:22:17;;;;;;;101.70;48.28;;;;;;;0.68;100.00;99632.97;4170065;83;20983;-86
2022/12/20 14:28:43;;;;;;;102.87;46.77;;;;;;;0.60;100.00;99622.05;4165168;83;21043;-86
2022/12/20 14:34:46;;;;;;;107.40;47.17;;;;;;;0.44;100.00;99633.63;4164165;84;21601;-88
2022/12/20 14:40:47;;;;;;;109.55;49.67;;;;;;;0.31;100.00;99634.38;4153791;84;21052;-86
2022/12/20 14:46:57;;;;;;;109.20;49.73;;;;;;;0.21;100.00;99643.13;4152299;84;21481;-86
2022/12/20 14:52:59;;;;;;;118.77;54.65;;;;;;;0.13;100.00;99643.78;4150228;84;21984;-87
2022/12/20 14:59:14;;;;;;;118.77;53.05;;;;;;;0.12;100.00;99656.47;4152637;84;21015;-85
2022/12/20 15:05:42;;;;;;;103.15;49.10;;;;;;;0.07;100.00;99644.41;4155896;84;20961;-86
2022/12/20 15:11:44;;;;;;;106.45;48.80;;;;;;;0.14;100.00;99649.44;4153879;83;22090;-86
2022/12/20 15:17:49;;;;;;;119.80;51.92;;;;;;;0.14;100.00;99631.41;4157203;84;21065;-86
2022/12/20 15:23:55;;;;;;;106.65;48.68;;;;;;;0.07;100.00;99626.92;4155114;84;21039;-86
2022/12/20 15:29:57;;;;;;;136.30;61.60;;;;;;;0.09;100.00;99607.78;4154589;84;21048;-87
2022/12/20 15:36:20;;;;;;;110.95;48.13;;;;;;;0.14;100.00;99613.91;4156346;84;21518;-85
2022/12/20 15:42:23;;;;;;;108.72;51.23;;;;;;;0.24;100.00;99623.16;4153191;84;21063;-86
2022/12/20 15:48:28;;;;;;;113.32;49.63;;;;;;;0.24;100.00;99623.70;4152819;84;22004;-86
2022/12/20 15:54:34;;;;;;;109.57;47.13;;;;;;;0.20;100.00;99618.13;4129178;84;21109;-86
2022/12/20 16:00:40;;;;;;;107.90;48.05;;;;;;;0.24;100.00;99615.62;4105530;84;21019;-85
2022/12/20 16:06:48;;;;;;;104.30;46.40;;;;;;;0.26;100.00;99624.22;4150515;84;21832;-87
2022/12/20 16:12:49;;;;;;;109.80;49.83;;;;;;;0.27;100.00;99609.11;4150135;84;21051;-86
2022/12/20 16:18:52;;;;;;;141.55;63.75;;;;;;;0.27;100.00;99589.48;4152201;84;21938;-86
2022/12/20 16:24:55;;;;;;;136.43;61.70;;;;;;;0.23;100.00;99583.88;4127274;84;21059;-85
2022/12/20 16:30:57;;;;;;;128.40;56.15;;;;;;;0.28;100.00;99565.48;4151430;84;21478;-87
2022/12/20 16:36:58;;;;;;;157.80;68.30;;;;;;;0.25;100.00;99589.75;4152917;84;21035;-86
2022/12/20 16:43:00;;;;;;;139.18;63.60;;;;;;;0.18;100.00;99600.64;4151663;84;21492;-87
2022/12/20 16:49:01;;;;;;;129.10;60.40;;;;;;;0.19;100.00;99593.61;4148876;84;21026;-87
2022/12/20 16:55:04;;;;;;;115.35;54.53;;;;;;;0.19;100.00;99579.38;4152225;84;21007;-86
2022/12/20 17:01:13;;;;;;;119.62;53.63;;;;;;;0.10;100.00;99594.56;4152729;84;21034;-87
2022/12/20 17:07:15;;;;;;;125.07;55.52;;;;;;;0.02;100.00;99585.83;4152796;84;21890;-87
2022/12/20 17:13:17;;;;;;;139.65;63.15;;;;;;;-0.07;100.00;99582.98;4153716;84;21041;-86
2022/12/20 17:19:20;;;;;;;141.92;63.08;;;;;;;-0.20;100.00;99588.54;4149818;84;21027;-86
2022/12/20 17:25:29;;;;;;;139.52;64.97;;;;;;;-0.31;100.00;99586.27;4152085;84;21014;-86
2022/12/20 17:31:41;;;;;;;116.10;53.48;;;;;;;-0.41;100.00;99575.66;4150510;83;21094;-85
2022/12/20 17:37:42;;;;;;;138.32;62.38;;;;;;;-0.49;100.00;99579.80;4148172;84;20980;-86
2022/12/20 17:43:44;;;;;;;224.25;97.60;;;;;;;-0.69;100.00;99568.48;4157647;84;21007;-86
2022/12/20 17:49:45;;;;;;;182.55;80.87;;;;;;;-0.77;100.00;99557.02;4162413;84;21046;-86
2022/12/20 17:55:47;;;;;;;210.00;93.72;;;;;;;-0.78;100.00;99554.87;4153441;84;21658;-87
2022/12/20 18:01:52;;;;;;;170.35;78.00;;;;;;;-0.71;100.00;99552.64;4150331;84;21138;-86
2022/12/20 18:07:56;;;;;;;175.15;83.67;;;;;;;-0.71;100.00;99531.67;4162903;83;21018;-86
2022/12/20 18:14:01;;;;;;;189.20;81.78;;;;;;;-0.75;100.00;99532.78;4151403;84;20975;-86
2022/12/20 18:20:09;;;;;;;147.33;66.93;;;;;;;-0.72;100.00;99533.55;4152065;83;21008;-86
2022/12/20 18:26:24;;;;;;;150.65;71.62;;;;;;;-0.84;100.00;99533.70;4161394;84;21061;-86
2022/12/20 18:32:25;;;;;;;176.70;77.17;;;;;;;-0.90;100.00;99534.33;4151156;84;21018;-85
2022/12/20 18:38:29;;;;;;;134.80;64.12;;;;;;;-0.95;100.00;99546.47;4151354;84;21566;-85
2022/12/20 18:44:34;;;;;;;160.15;71.10;;;;;;;-0.94;100.00;99525.78;4155207;83;21015;-85
2022/12/20 18:50:35;;;;;;;154.35;70.55;;;;;;;-0.89;100.00;99511.73;4147465;84;21063;-85
2022/12/20 18:56:38;;;;;;;156.72;74.15;;;;;;;-0.82;100.00;99506.81;4138927;84;21049;-87
2022/12/20 19:02:39;;;;;;;162.45;76.57;;;;;;;-0.84;100.00;99493.39;4153752;84;21506;-86
2022/12/20 19:08:42;;;;;;;164.18;77.87;;;;;;;-0.84;100.00;99493.39;4148704;83;22073;-85
2022/12/20 19:14:43;;;;;;;179.45;81.85;;;;;;;-0.96;100.00;99473.67;4143787;84;21014;-84
2022/12/20 19:20:46;;;;;;;166.68;77.97;;;;;;;-0.80;100.00;99489.05;4137285;84;21062;-86
2022/12/20 19:26:47;;;;;;;169.43;77.92;;;;;;;-0.84;100.00;99474.04;4148601;84;21092;-85
2022/12/20 19:32:49;;;;;;;177.90;81.55;;;;;;;-0.76;100.00;99480.66;4142318;84;22066;-85
2022/12/20 19:38:54;;;;;;;184.63;87.80;;;;;;;-0.73;100.00;99477.38;4146235;83;20989;-85
2022/12/20 19:44:56;;;;;;;161.57;77.92;;;;;;;-0.79;100.00;99475.86;4106586;84;21089;-84
2022/12/20 19:51:08;;;;;;;169.72;76.65;;;;;;;-0.80;100.00;99489.83;4130106;84;21999;-85
2022/12/20 19:57:09;;;;;;;167.62;79.60;;;;;;;-0.82;100.00;99494.72;4129390;84;20999;-85
2022/12/20 20:03:11;;;;;;;171.22;83.12;;;;;;;-0.83;100.00;99491.75;4129253;84;21525;-85
2022/12/20 20:09:13;;;;;;;191.50;93.78;;;;;;;-0.85;100.00;99491.27;4128450;84;21043;-84
2022/12/20 20:15:14;;;;;;;178.55;87.15;;;;;;;-0.89;100.00;99489.45;4129115;84;20960;-85
2022/12/20 20:21:20;;;;;;;172.72;82.88;;;;;;;-0.98;100.00;99478.52;4128863;84;21037;-85
2022/12/20 20:27:22;;;;;;;205.43;100.22;;;;;;;-1.05;100.00;99480.74;4130231;83;21012;-84
2022/12/20 20:33:25;;;;;;;200.93;100.45;;;;;;;-1.30;100.00;99455.52;4130736;84;21063;-84
2022/12/20 20:39:26;;;;;;;215.57;100.27;;;;;;;-1.32;100.00;99475.70;4130777;84;21066;-85
2022/12/20 20:45:28;;;;;;;198.65;92.40;;;;;;;-1.43;100.00;99483.62;4128401;84;21117;-85
2022/12/20 20:51:29;;;;;;;197.55;92.55;;;;;;;-1.56;100.00;99463.61;4130397;84;21004;-85
2022/12/20 20:57:31;;;;;;;188.05;89.37;;;;;;;-1.63;100.00;99453.20;4129676;84;21080;-85
2022/12/20 21:03:32;;;;;;;179.75;84.50;;;;;;;-1.82;100.00;99453.66;4129400;84;20982;-85
2022/12/20 21:09:34;;;;;;;169.47;82.22;;;;;;;-1.82;100.00;99453.66;4127638;84;21040;-85
2022/12/20 21:15:36;;;;;;;169.77;80.28;;;;;;;-1.97;100.00;99449.79;4128367;84;21475;-85
2022/12/20 21:21:37;;;;;;;165.57;76.92;;;;;;;-2.20;100.00;99465.28;4129250;84;21114;-85
2022/12/20 21:27:39;;;;;;;161.45;75.90;;;;;;;-2.43;100.00;99432.48;4129789;84;21023;-85
2022/12/20 21:33:41;;;;;;;164.13;77.53;;;;;;;-2.47;100.00;99418.55;4130912;84;21047;-86
2022/12/20 21:39:42;;;;;;;183.55;79.25;;;;;;;-2.47;100.00;99418.55;4122152;84;21688;-85
2022/12/20 21:45:48;;;;;;;173.90;79.58;;;;;;;-2.40;100.00;99425.23;4162947;84;21652;-85
2022/12/20 21:51:55;;;;;;;193.70;87.88;;;;;;;-2.45;100.00;99417.22;4166669;84;21046;-85
2022/12/20 21:57:57;;;;;;;210.82;89.75;;;;;;;-2.39;100.00;99403.22;4166860;84;21033;-85
2022/12/20 22:04:02;;;;;;;223.00;89.55;;;;;;;-2.44;100.00;99361.16;4169624;83;21046;-85
2022/12/20 22:10:04;;;;;;;209.25;79.32;;;;;;;-2.44;100.00;99361.16;4170527;84;21547;-85
2022/12/20 22:16:09;;;;;;;177.50;72.78;;;;;;;-2.51;100.00;99340.60;4170295;83;21525;-85
2022/12/20 22:22:11;;;;;;;193.47;72.10;;;;;;;-2.60;100.00;99350.30;4171235;84;21023;-86
2022/12/20 22:28:12;;;;;;;178.18;71.22;;;;;;;-2.67;100.00;99347.16;4176038;84;21973;-86
2022/12/20 22:34:14;;;;;;;173.32;67.67;;;;;;;-2.75;100.00;99348.28;4148459;84;21574;-85
2022/12/20 22:40:15;;;;;;;177.87;72.13;;;;;;;-2.90;100.00;99357.79;4160368;84;22296;-86
2022/12/20 22:46:17;;;;;;;158.65;63.52;;;;;;;-2.94;100.00;99355.42;4150282;84;21019;-85
2022/12/20 22:52:20;;;;;;;176.60;70.73;;;;;;;-3.07;100.00;99359.52;4156150;84;21102;-85
2022/12/20 22:58:22;;;;;;;185.00;76.50;;;;;;;-3.08;100.00;99339.67;4159304;84;20969;-86
2022/12/20 23:04:23;;;;;;;197.07;79.13;;;;;;;-3.09;100.00;99331.39;4141180;84;21103;-84
2022/12/20 23:16:44;;;;;;;183.70;73.87;;;;;;;-3.19;100.00;99317.53;4155912;83;21043;-85
2022/12/20 23:22:45;;;;;;;146.83;64.37;;;;;;;-3.24;100.00;99322.91;4152200;84;21511;-84
2022/12/20 23:28:47;;;;;;;162.95;66.55;;;;;;;-3.27;100.00;99320.26;4145423;84;21528;-84
2022/12/20 23:34:49;;;;;;;145.50;63.13;;;;;;;-3.29;100.00;99305.56;4147849;84;20976;-85
2022/12/20 23:40:51;;;;;;;141.47;60.60;;;;;;;-3.24;100.00;99292.92;4218132;83;21027;-86
2022/12/20 23:46:52;;;;;;;129.73;56.97;;;;;;;-3.30;100.00;99287.35;4197095;83;21979;-85
2022/12/20 23:52:53;;;;;;;122.43;52.97;;;;;;;-3.37;100.00;99282.05;4218732;83;21066;-84
2022/12/20 23:58:56;;;;;;;132.33;55.27;;;;;;;-3.45;100.00;99288.80;4221030;83;21072;-87
